Time;durP1;ratioP1;P1;durP2;ratioP2;P2;SDS_P1;SDS_P2;PMS_P1;PMS_P2;Temp;Humidity;BMP_temperature;BMP_pressure;BME280_temperature;BME280_humidity;BME280_pressure;Samples;Min_cycle;Max_cycle;Signal;HPM_P1;HPM_P2
2023/09/21 00:01:38;;;;;;;2.00;1.52;;;22.40;58.60;;;;;;5055091;28;20206;-80
2023/09/21 00:04:07;;;;;;;2.03;1.70;;;22.40;58.60;;;;;;5055247;28;20326;-80
2023/09/21 00:06:33;;;;;;;1.85;1.73;;;22.40;58.70;;;;;;5056420;28;20219;-80
2023/09/21 00:09:00;;;;;;;2.53;1.67;;;22.40;58.70;;;;;;5055082;28;20203;-80
2023/09/21 00:11:27;;;;;;;1.70;1.60;;;22.40;58.70;;;;;;5055452;28;20203;-80
2023/09/21 00:13:55;;;;;;;2.78;1.80;;;22.30;58.70;;;;;;5055087;28;20278;-80
2023/09/21 00:16:25;;;;;;;1.75;1.65;;;22.30;58.70;;;;;;5055690;28;20226;-80
2023/09/21 00:18:53;;;;;;;1.63;1.52;;;22.30;59.30;;;;;;5055125;28;20210;-80
2023/09/21 00:21:20;;;;;;;1.77;1.65;;;22.30;58.70;;;;;;5063305;28;20180;-80
2023/09/21 00:23:47;;;;;;;1.60;1.50;;;22.30;58.70;;;;;;5058378;28;20305;-80
2023/09/21 00:26:15;;;;;;;1.95;1.75;;;22.30;58.80;;;;;;5054838;28;20226;-80
2023/09/21 00:28:46;;;;;;;1.83;1.65;;;22.20;58.70;;;;;;5055765;28;20269;-80
2023/09/21 00:31:14;;;;;;;1.75;1.65;;;22.30;58.80;;;;;;5054842;28;20681;-80
2023/09/21 00:33:41;;;;;;;1.70;1.60;;;22.30;58.80;;;;;;5054498;28;20541;-80
2023/09/21 00:36:13;;;;;;;1.67;1.52;;;22.30;58.80;;;;;;5038130;28;20223;-80
2023/09/21 00:38:40;;;;;;;2.90;1.77;;;22.20;58.70;;;;;;5038899;28;20257;-79
2023/09/21 00:41:07;;;;;;;1.92;1.60;;;22.30;58.80;;;;;;5054650;28;20199;-79
2023/09/21 00:43:34;;;;;;;1.75;1.65;;;22.30;58.80;;;;;;5038275;28;20234;-79
2023/09/21 00:46:03;;;;;;;2.05;1.80;;;22.30;58.90;;;;;;5054266;28;20219;-79
2023/09/21 00:48:35;;;;;;;2.03;1.80;;;22.30;58.90;;;;;;5050379;28;20229;-79
2023/09/21 00:51:06;;;;;;;1.98;1.80;;;22.20;58.80;;;;;;5055922;28;20180;-79
2023/09/21 00:53:33;;;;;;;1.52;1.42;;;22.30;58.90;;;;;;5054130;28;20253;-79
2023/09/21 00:56:01;;;;;;;1.70;1.60;;;22.20;58.90;;;;;;5053969;28;20211;-79
2023/09/21 00:58:28;;;;;;;1.60;1.50;;;22.20;58.90;;;;;;5053827;28;20207;-79
2023/09/21 01:00:55;;;;;;;1.63;1.52;;;22.20;58.90;;;;;;5054006;28;20191;-80
2023/09/21 01:03:24;;;;;;;1.52;1.42;;;22.20;58.90;;;;;;5054124;28;20261;-80
2023/09/21 01:05:53;;;;;;;1.98;1.80;;;22.20;59.00;;;;;;5054114;28;20262;-80
2023/09/21 01:08:25;;;;;;;2.58;1.70;;;22.20;59.00;;;;;;5054231;28;20202;-80
2023/09/21 01:10:54;;;;;;;1.90;1.80;;;22.20;59.00;;;;;;5053990;28;20237;-80
2023/09/21 01:13:21;;;;;;;1.52;1.42;;;22.20;59.00;;;;;;5054180;28;20196;-81
2023/09/21 01:15:59;;;;;;;2.50;1.73;;;22.20;59.00;;;;;;5055652;28;20214;-80
2023/09/21 01:18:26;;;;;;;1.73;1.63;;;22.20;59.10;;;;;;5054067;28;20187;-80
2023/09/21 01:21:00;;;;;;;1.70;1.60;;;22.20;59.10;;;;;;5053743;28;20203;-80
2023/09/21 01:23:36;;;;;;;1.85;1.65;;;22.10;59.00;;;;;;5053908;28;20223;-80
2023/09/21 01:26:03;;;;;;;1.60;1.50;;;22.20;59.10;;;;;;5053790;28;20227;-80
2023/09/21 01:28:31;;;;;;;1.80;1.70;;;22.20;59.10;;;;;;5037624;28;20230;-80
2023/09/21 01:30:58;;;;;;;1.98;1.77;;;22.10;59.10;;;;;;5054939;28;20253;-80
2023/09/21 01:33:26;;;;;;;1.60;1.50;;;22.20;59.10;;;;;;5053562;28;20198;-80
2023/09/21 01:35:52;;;;;;;1.60;1.50;;;22.10;59.10;;;;;;5053931;28;20239;-80
2023/09/21 01:38:27;;;;;;;1.70;1.60;;;22.10;59.10;;;;;;5053783;28;20238;-80
2023/09/21 01:40:59;;;;;;;1.73;1.63;;;22.10;59.10;;;;;;5038329;28;20256;-80
2023/09/21 01:43:26;;;;;;;1.88;1.77;;;22.10;59.70;;;;;;5053793;28;20218;-80
2023/09/21 01:45:53;;;;;;;2.05;1.80;;;22.10;59.10;;;;;;5053569;28;20228;-80
2023/09/21 01:48:20;;;;;;;1.98;1.70;;;22.20;59.20;;;;;;5033086;28;21015;-80
2023/09/21 01:50:48;;;;;;;2.10;1.58;;;22.10;59.20;;;;;;5053952;28;20199;-80
2023/09/21 01:53:16;;;;;;;1.60;1.50;;;22.10;59.30;;;;;;5052997;28;20183;-80
2023/09/21 01:55:44;;;;;;;1.73;1.42;;;22.10;59.30;;;;;;5053056;28;20250;-80
2023/09/21 01:58:13;;;;;;;1.83;1.63;;;22.10;59.30;;;;;;5053304;28;20278;-80
2023/09/21 02:00:40;;;;;;;1.50;1.40;;;22.10;59.30;;;;;;5053634;28;20199;-80
2023/09/21 02:03:12;;;;;;;1.73;1.55;;;22.10;59.40;;;;;;5054344;28;20539;-80
2023/09/21 02:05:39;;;;;;;1.60;1.50;;;22.10;59.40;;;;;;5053323;28;20410;-80
2023/09/21 02:08:07;;;;;;;1.67;1.55;;;22.10;59.40;;;;;;5054415;28;20684;-80
2023/09/21 02:10:34;;;;;;;1.70;1.60;;;22.00;59.40;;;;;;5052404;28;20199;-80
2023/09/21 02:13:03;;;;;;;2.25;1.70;;;22.10;59.50;;;;;;5053235;28;20291;-80
2023/09/21 02:15:34;;;;;;;1.60;1.50;;;22.10;59.40;;;;;;5053140;28;20708;-80
2023/09/21 02:18:04;;;;;;;1.45;1.30;;;22.10;59.40;;;;;;5053121;28;20246;-80
2023/09/21 02:20:31;;;;;;;1.50;1.40;;;22.10;59.40;;;;;;5053262;28;20576;-80
2023/09/21 02:23:00;;;;;;;1.77;1.52;;;22.10;59.50;;;;;;5053019;28;20539;-80
2023/09/21 02:25:30;;;;;;;1.80;1.60;;;22.10;59.50;;;;;;5036933;28;20239;-80
2023/09/21 02:27:57;;;;;;;1.60;1.50;;;22.00;59.40;;;;;;5036319;28;20191;-80
2023/09/21 02:30:25;;;;;;;1.50;1.40;;;22.00;59.40;;;;;;5052858;28;20191;-80
2023/09/21 02:32:54;;;;;;;2.17;1.60;;;22.00;59.40;;;;;;5036456;28;20671;-80
2023/09/21 02:35:26;;;;;;;1.55;1.45;;;22.00;59.40;;;;;;5052877;28;20250;-80
2023/09/21 02:37:53;;;;;;;1.45;1.35;;;22.00;59.50;;;;;;5053006;28;20188;-80
2023/09/21 02:40:20;;;;;;;1.70;1.60;;;22.00;59.40;;;;;;5036366;28;20195;-80
2023/09/21 02:42:48;;;;;;;2.13;1.40;;;22.00;59.50;;;;;;5053257;28;20256;-80
2023/09/21 02:45:16;;;;;;;1.85;1.70;;;22.00;59.50;;;;;;5053096;28;20226;-80
2023/09/21 02:47:43;;;;;;;1.60;1.50;;;22.00;59.50;;;;;;5060014;28;20195;-80
2023/09/21 02:50:15;;;;;;;1.92;1.58;;;22.00;59.50;;;;;;5057008;28;20318;-80
2023/09/21 02:52:47;;;;;;;1.80;1.70;;;22.00;59.50;;;;;;5057222;28;20274;-80
2023/09/21 02:55:16;;;;;;;1.90;1.70;;;22.00;59.40;;;;;;5053571;28;20222;-80
2023/09/21 02:57:45;;;;;;;1.77;1.67;;;22.00;59.40;;;;;;5052754;28;20706;-80
2023/09/21 03:00:26;;;;;;;1.48;1.38;;;22.00;59.30;;;;;;5052683;28;20188;-80
2023/09/21 03:02:55;;;;;;;1.70;1.60;;;22.00;59.30;;;;;;5052762;28;20206;-80
2023/09/21 03:05:24;;;;;;;1.58;1.48;;;22.00;59.30;;;;;;5036185;28;20269;-80
2023/09/21 03:07:51;;;;;;;1.75;1.63;;;22.00;59.20;;;;;;5052403;28;20646;-80
2023/09/21 03:10:18;;;;;;;2.35;1.73;;;22.00;59.10;;;;;;5052258;28;20203;-80
2023/09/21 03:12:48;;;;;;;1.77;1.60;;;22.10;59.20;;;;;;5052382;28;20278;-80
2023/09/21 03:15:22;;;;;;;1.85;1.70;;;22.10;59.20;;;;;;5052501;28;20211;-80
2023/09/21 03:17:52;;;;;;;1.80;1.70;;;22.10;59.20;;;;;;5052793;28;20234;-80
2023/09/21 03:20:32;;;;;;;1.92;1.55;;;22.10;59.10;;;;;;5052389;28;20245;-81
2023/09/21 03:23:01;;;;;;;1.85;1.75;;;22.10;59.10;;;;;;5056698;28;20715;-81
2023/09/21 03:25:31;;;;;;;1.70;1.60;;;22.20;59.10;;;;;;5056417;28;20227;-81
2023/09/21 03:28:10;;;;;;;1.73;1.63;;;22.20;58.90;;;;;;5056425;28;20270;-81
2023/09/21 03:30:37;;;;;;;2.20;1.67;;;22.20;58.80;;;;;;5056941;28;20230;-81
2023/09/21 03:33:05;;;;;;;1.60;1.50;;;22.20;58.70;;;;;;5055679;28;20244;-81
2023/09/21 03:35:34;;;;;;;1.52;1.42;;;22.30;58.60;;;;;;5055489;28;20273;-81
2023/09/21 03:38:00;;;;;;;1.90;1.70;;;22.30;58.50;;;;;;5055948;28;20202;-81
2023/09/21 03:40:30;;;;;;;1.92;1.60;;;22.30;58.40;;;;;;5055769;28;20238;-81
2023/09/21 03:42:57;;;;;;;1.70;1.60;;;22.40;58.40;;;;;;5055752;28;20211;-81
2023/09/21 03:45:25;;;;;;;1.77;1.67;;;22.40;58.40;;;;;;5055574;28;20231;-81
2023/09/21 03:47:52;;;;;;;1.60;1.50;;;22.40;58.30;;;;;;5055561;28;20282;-81
2023/09/21 03:50:20;;;;;;;2.28;1.70;;;22.40;58.20;;;;;;5052024;28;20302;-81
2023/09/21 03:52:49;;;;;;;1.70;1.60;;;22.50;58.20;;;;;;5055678;28;20241;-81
2023/09/21 03:55:17;;;;;;;1.65;1.50;;;22.50;58.20;;;;;;5055599;28;20246;-81
2023/09/21 03:57:46;;;;;;;1.80;1.70;;;22.50;58.10;;;;;;5067282;28;20261;-81
2023/09/21 04:00:21;;;;;;;1.70;1.60;;;22.50;58.00;;;;;;5055894;28;20201;-81
2023/09/21 04:02:49;;;;;;;1.50;1.40;;;22.50;58.10;;;;;;5055820;28;20201;-81
2023/09/21 04:05:20;;;;;;;1.40;1.30;;;22.50;58.00;;;;;;5055292;28;20238;-81
2023/09/21 04:07:50;;;;;;;2.28;1.50;;;22.50;58.10;;;;;;5055071;28;20196;-81
2023/09/21 04:10:17;;;;;;;1.65;1.55;;;22.50;58.10;;;;;;5055396;28;20691;-81
2023/09/21 04:12:44;;;;;;;2.08;1.60;;;22.50;58.10;;;;;;5055007;28;20202;-79
2023/09/21 04:15:12;;;;;;;2.00;1.80;;;22.50;58.00;;;;;;5055057;28;20191;-79
2023/09/21 04:17:40;;;;;;;1.60;1.45;;;22.50;58.00;;;;;;5054754;28;20223;-79
2023/09/21 04:20:11;;;;;;;1.90;1.77;;;22.50;58.10;;;;;;5054603;28;20204;-79
2023/09/21 04:22:39;;;;;;;1.67;1.55;;;22.50;58.10;;;;;;5054907;28;20195;-79
2023/09/21 04:25:09;;;;;;;1.65;1.52;;;22.50;58.00;;;;;;5055121;28;20211;-80
2023/09/21 04:27:38;;;;;;;1.60;1.50;;;22.50;58.10;;;;;;5054671;28;20252;-80
2023/09/21 04:30:08;;;;;;;2.40;1.80;;;22.50;58.10;;;;;;5039368;28;20195;-80
2023/09/21 04:32:36;;;;;;;1.58;1.48;;;22.50;58.10;;;;;;5054881;28;20191;-82
2023/09/21 04:35:03;;;;;;;1.65;1.50;;;22.50;58.10;;;;;;5054080;28;20195;-80
2023/09/21 04:37:31;;;;;;;2.15;1.70;;;22.50;58.20;;;;;;5054615;28;20203;-80
2023/09/21 04:40:00;;;;;;;2.10;1.90;;;22.50;57.80;;;;;;5052411;28;20223;-80
2023/09/21 04:42:32;;;;;;;2.20;1.90;;;22.40;57.80;;;;;;5053132;28;20658;-81
2023/09/21 04:44:59;;;;;;;1.80;1.70;;;22.40;57.90;;;;;;5054318;28;20223;-81
2023/09/21 04:47:27;;;;;;;1.63;1.52;;;22.40;58.00;;;;;;5054249;28;20187;-82
2023/09/21 04:49:55;;;;;;;3.45;1.90;;;22.40;58.00;;;;;;5050145;28;20195;-83
2023/09/21 04:52:22;;;;;;;2.40;1.95;;;22.40;58.00;;;;;;5054370;28;20199;-82
2023/09/21 04:54:52;;;;;;;4.28;2.08;;;22.30;58.10;;;;;;5054789;28;20183;-82
2023/09/21 04:57:19;;;;;;;2.42;1.95;;;22.30;58.20;;;;;;5055525;28;20191;-81
2023/09/21 04:59:48;;;;;;;2.50;2.00;;;22.20;58.30;;;;;;5054680;28;20191;-81
2023/09/21 05:02:15;;;;;;;2.13;1.92;;;22.20;58.20;;;;;;5054736;28;20196;-81
2023/09/21 05:04:42;;;;;;;3.20;2.00;;;22.20;58.40;;;;;;5054602;28;20584;-81
2023/09/21 05:07:09;;;;;;;2.45;1.85;;;22.10;58.40;;;;;;5037909;28;20310;-81
2023/09/21 05:09:36;;;;;;;3.55;1.77;;;22.10;58.60;;;;;;5054067;28;20199;-81
2023/09/21 05:12:06;;;;;;;2.47;1.80;;;22.10;58.70;;;;;;5055053;28;20191;-81
2023/09/21 05:14:33;;;;;;;2.85;2.00;;;22.00;58.60;;;;;;5022049;28;20196;-81
2023/09/21 05:17:01;;;;;;;3.83;2.00;;;22.00;58.90;;;;;;5053979;28;20682;-82
2023/09/21 05:19:30;;;;;;;2.20;2.00;;;22.00;58.60;;;;;;5054020;28;20290;-82
2023/09/21 05:21:58;;;;;;;2.63;1.98;;;22.00;58.60;;;;;;5054157;28;20199;-82
2023/09/21 05:24:26;;;;;;;2.47;2.00;;;22.00;58.60;;;;;;5037021;28;20566;-82
2023/09/21 05:26:53;;;;;;;3.60;2.20;;;22.00;58.60;;;;;;5054030;28;20230;-82
2023/09/21 05:29:20;;;;;;;1.98;1.80;;;22.00;58.70;;;;;;5053380;28;20206;-82
2023/09/21 05:31:48;;;;;;;2.72;1.92;;;21.90;58.70;;;;;;5053654;28;20583;-82
2023/09/21 05:34:16;;;;;;;3.92;2.15;;;21.90;58.70;;;;;;5053757;28;20203;-82
2023/09/21 05:36:45;;;;;;;3.25;2.10;;;21.90;58.80;;;;;;5053473;28;20310;-82
2023/09/21 05:39:14;;;;;;;3.30;2.15;;;22.00;58.80;;;;;;5053143;28;20654;-82
2023/09/21 05:41:41;;;;;;;2.28;2.10;;;21.90;58.90;;;;;;5054730;28;20206;-83
2023/09/21 05:44:09;;;;;;;2.22;2.00;;;22.00;59.00;;;;;;5053716;28;20226;-82
2023/09/21 05:46:36;;;;;;;3.28;1.73;;;22.00;59.10;;;;;;5037182;28;20579;-82
2023/09/21 05:49:03;;;;;;;1.85;1.75;;;22.00;59.20;;;;;;5053492;28;20290;-82
2023/09/21 05:51:32;;;;;;;2.35;1.77;;;22.00;59.10;;;;;;5053249;28;20199;-82
2023/09/21 05:54:00;;;;;;;2.38;1.90;;;22.00;59.10;;;;;;5052737;28;20195;-82
2023/09/21 05:56:27;;;;;;;2.10;1.90;;;22.00;59.00;;;;;;5052805;28;20304;-82
2023/09/21 05:58:54;;;;;;;2.00;1.80;;;22.00;59.00;;;;;;5053050;28;20680;-82
2023/09/21 06:01:22;;;;;;;2.45;2.15;;;22.00;59.00;;;;;;5052683;28;20203;-82
2023/09/21 06:03:49;;;;;;;1.80;1.70;;;22.00;59.00;;;;;;5036626;28;20206;-82
2023/09/21 06:06:19;;;;;;;2.28;1.90;;;22.00;59.00;;;;;;5052795;28;20223;-82
2023/09/21 06:08:48;;;;;;;2.42;1.83;;;22.10;59.10;;;;;;5053908;28;20206;-82
2023/09/21 06:11:15;;;;;;;3.88;2.00;;;22.10;59.00;;;;;;5052853;28;20282;-82
2023/09/21 06:13:42;;;;;;;1.95;1.85;;;22.10;58.90;;;;;;5053269;28;20668;-82
2023/09/21 06:16:10;;;;;;;2.78;2.15;;;22.10;58.80;;;;;;5036743;28;20211;-82
2023/09/21 06:18:37;;;;;;;2.28;2.05;;;22.20;58.80;;;;;;5036135;28;20226;-82
2023/09/21 06:21:06;;;;;;;2.20;2.00;;;22.20;58.60;;;;;;5052537;28;20191;-82
2023/09/21 06:23:33;;;;;;;2.17;1.95;;;22.20;58.60;;;;;;5066156;22;20277;-78
2023/09/21 06:26:03;;;;;;;2.00;1.85;;;22.30;58.50;;;;;;5035929;28;20257;-78
2023/09/21 06:28:30;;;;;;;2.88;2.00;;;22.30;58.50;;;;;;5052790;28;20865;-77
2023/09/21 06:30:57;;;;;;;2.38;1.98;;;22.30;58.40;;;;;;5036067;28;20226;-77
2023/09/21 06:33:27;;;;;;;2.60;1.73;;;22.40;58.40;;;;;;5052565;28;20198;-79
2023/09/21 06:35:54;;;;;;;2.08;1.88;;;22.40;58.40;;;;;;5052369;28;20225;-78
2023/09/21 06:38:22;;;;;;;2.20;2.00;;;22.40;58.20;;;;;;5052443;28;20633;-77
2023/09/21 06:40:49;;;;;;;2.30;2.08;;;22.40;58.20;;;;;;5052505;28;20210;-77
2023/09/21 06:43:18;;;;;;;2.30;2.10;;;22.50;58.20;;;;;;5052549;28;20290;-77
2023/09/21 06:45:45;;;;;;;2.13;2.00;;;22.50;58.10;;;;;;5052451;28;20690;-77
2023/09/21 06:48:12;;;;;;;2.65;2.17;;;22.50;58.00;;;;;;5052197;28;20191;-77
2023/09/21 06:50:40;;;;;;;2.03;1.90;;;22.50;58.60;;;;;;5052180;28;20210;-77
2023/09/21 06:53:07;;;;;;;2.00;1.80;;;22.60;57.90;;;;;;5053171;28;20257;-77
2023/09/21 06:55:35;;;;;;;2.08;1.88;;;22.60;57.80;;;;;;5052233;28;20310;-77
2023/09/21 06:58:02;;;;;;;2.30;2.10;;;22.60;57.70;;;;;;5055481;28;20199;-77
2023/09/21 07:00:31;;;;;;;2.13;1.92;;;22.70;57.70;;;;;;5056383;28;20191;-78
2023/09/21 07:02:58;;;;;;;2.00;1.77;;;22.70;57.50;;;;;;5056251;28;20650;-78
2023/09/21 07:05:25;;;;;;;2.00;1.80;;;22.80;57.50;;;;;;5056110;28;20568;-78
2023/09/21 07:07:54;;;;;;;1.90;1.80;;;22.80;57.40;;;;;;5056437;28;20199;-78
2023/09/21 07:10:21;;;;;;;1.85;1.73;;;22.80;57.40;;;;;;5056682;28;20214;-78
2023/09/21 07:12:50;;;;;;;1.75;1.48;;;22.90;57.40;;;;;;5056704;28;20200;-78
2023/09/21 07:15:17;;;;;;;2.83;1.85;;;22.90;57.30;;;;;;5056184;28;20689;-78
2023/09/21 07:17:46;;;;;;;2.92;2.05;;;22.90;57.30;;;;;;5055990;28;20245;-78
2023/09/21 07:20:16;;;;;;;2.83;2.28;;;22.90;57.20;;;;;;5056145;28;20203;-78
2023/09/21 07:22:43;;;;;;;1.67;1.58;;;22.90;57.10;;;;;;5056098;28;20741;-78
2023/09/21 07:25:10;;;;;;;2.53;1.73;;;23.00;57.20;;;;;;5055863;28;20238;-78
2023/09/21 07:27:42;;;;;;;1.75;1.60;;;23.10;57.00;;;;;;5056135;28;20191;-78
2023/09/21 07:30:11;;;;;;;2.95;2.15;;;23.20;56.70;;;;;;5057013;28;20191;-78
2023/09/21 07:32:39;;;;;;;2.10;1.90;;;23.30;56.60;;;;;;5056829;28;20227;-78
2023/09/21 07:35:09;;;;;;;3.38;1.95;;;23.40;56.40;;;;;;5057106;28;20247;-78
2023/09/21 07:37:36;;;;;;;2.10;2.00;;;23.50;56.10;;;;;;5056807;28;20222;-78
2023/09/21 07:40:06;;;;;;;2.40;2.17;;;23.60;56.00;;;;;;5056119;28;20210;-78
2023/09/21 07:42:34;;;;;;;1.88;1.77;;;23.60;55.90;;;;;;5056246;28;20199;-78
2023/09/21 07:45:02;;;;;;;1.80;1.55;;;23.60;55.70;;;;;;5023381;28;20215;-78
2023/09/21 07:47:29;;;;;;;2.42;2.00;;;23.60;55.70;;;;;;5055991;28;20242;-78
2023/09/21 07:49:55;;;;;;;2.22;2.03;;;23.60;55.70;;;;;;5056093;28;20192;-78
2023/09/21 07:52:24;;;;;;;2.13;1.90;;;23.60;55.60;;;;;;5039516;28;20199;-78
2023/09/21 07:54:51;;;;;;;2.08;1.90;;;23.60;55.60;;;;;;5057156;28;20261;-78
2023/09/21 07:57:18;;;;;;;2.85;2.28;;;23.70;55.60;;;;;;5056065;28;20245;-78
2023/09/21 07:59:46;;;;;;;1.80;1.70;;;23.80;55.60;;;;;;5039414;28;20223;-78
2023/09/21 08:02:13;;;;;;;2.50;1.90;;;23.80;55.40;;;;;;5039431;28;20206;-78
2023/09/21 08:04:41;;;;;;;1.80;1.70;;;23.80;55.30;;;;;;5055875;28;20207;-78
2023/09/21 08:07:07;;;;;;;2.00;1.80;;;24.00;55.10;;;;;;5055499;28;20674;-78
2023/09/21 08:09:36;;;;;;;2.28;1.73;;;24.00;54.90;;;;;;5055864;28;20724;-78
2023/09/21 08:12:04;;;;;;;2.22;1.80;;;24.10;54.80;;;;;;5059604;28;20214;-78
2023/09/21 08:14:32;;;;;;;2.22;1.88;;;24.20;54.70;;;;;;5059492;28;20210;-78
2023/09/21 08:16:59;;;;;;;2.10;1.90;;;24.30;54.40;;;;;;5059141;28;20211;-78
2023/09/21 08:19:26;;;;;;;2.15;1.95;;;24.50;54.10;;;;;;5056817;28;20282;-78
2023/09/21 08:21:55;;;;;;;1.92;1.70;;;24.70;53.90;;;;;;5056834;28;20543;-78
2023/09/21 08:24:22;;;;;;;1.88;1.67;;;24.70;53.40;;;;;;5056410;28;20207;-78
2023/09/21 08:26:51;;;;;;;1.75;1.63;;;24.80;53.30;;;;;;5039409;28;20658;-78
2023/09/21 08:29:21;;;;;;;2.05;1.80;;;24.80;53.50;;;;;;5056122;28;20195;-78
2023/09/21 08:31:48;;;;;;;1.80;1.70;;;24.70;53.50;;;;;;5039496;28;20195;-78
2023/09/21 08:34:19;;;;;;;2.00;1.80;;;24.70;53.50;;;;;;5054469;28;20661;-78
2023/09/21 08:36:45;;;;;;;1.90;1.70;;;24.70;53.50;;;;;;5054504;28;20210;-78
2023/09/21 08:39:13;;;;;;;1.70;1.60;;;24.70;53.40;;;;;;5054317;28;20253;-78
2023/09/21 08:41:40;;;;;;;1.70;1.60;;;24.80;53.40;;;;;;5055794;28;20253;-78
2023/09/21 08:44:09;;;;;;;1.75;1.65;;;24.80;53.30;;;;;;5055666;28;20242;-78
2023/09/21 08:46:38;;;;;;;2.38;1.95;;;24.80;53.40;;;;;;5054156;28;20233;-78
2023/09/21 08:49:06;;;;;;;2.13;1.88;;;24.90;53.40;;;;;;5054413;28;20245;-78
2023/09/21 08:51:33;;;;;;;1.80;1.70;;;24.80;53.30;;;;;;5055161;28;20199;-78
2023/09/21 08:54:03;;;;;;;1.80;1.70;;;24.90;53.40;;;;;;5054188;28;20727;-78
2023/09/21 08:56:33;;;;;;;1.92;1.83;;;24.90;53.40;;;;;;5054152;28;20203;-78
2023/09/21 08:59:00;;;;;;;1.88;1.77;;;24.90;53.30;;;;;;5039297;28;20195;-78
2023/09/21 09:01:28;;;;;;;2.10;1.90;;;24.90;53.10;;;;;;5053918;28;20199;-78
2023/09/21 09:03:56;;;;;;;1.88;1.77;;;24.90;53.10;;;;;;5054240;28;20250;-78
2023/09/21 09:06:23;;;;;;;1.90;1.80;;;25.00;53.10;;;;;;5058976;28;20253;-78
2023/09/21 09:08:50;;;;;;;2.47;1.63;;;25.00;53.00;;;;;;5057421;28;20210;-78
2023/09/21 09:11:32;;;;;;;2.00;1.90;;;25.00;53.00;;;;;;5056305;28;20306;-78
2023/09/21 09:13:59;;;;;;;1.83;1.73;;;25.10;52.90;;;;;;5051140;28;20657;-78
2023/09/21 09:16:30;;;;;;;2.08;1.80;;;25.10;52.70;;;;;;5055051;28;20232;-78
2023/09/21 09:18:58;;;;;;;2.13;1.92;;;25.20;52.60;;;;;;5055222;28;20191;-78
2023/09/21 09:21:25;;;;;;;1.75;1.65;;;25.20;52.70;;;;;;5056580;28;20198;-80
2023/09/21 09:23:52;;;;;;;1.63;1.52;;;25.20;52.60;;;;;;5057343;28;20635;-80
2023/09/21 09:26:20;;;;;;;1.70;1.60;;;25.20;52.70;;;;;;5055674;28;20219;-80
2023/09/21 09:28:47;;;;;;;2.05;1.75;;;25.20;52.70;;;;;;5054642;28;20553;-80
2023/09/21 09:31:18;;;;;;;2.05;1.80;;;25.20;52.50;;;;;;5037878;28;20198;-80
2023/09/21 09:33:48;;;;;;;1.70;1.60;;;25.30;52.60;;;;;;5053431;28;20229;-80
2023/09/21 09:36:15;;;;;;;1.60;1.50;;;25.30;52.40;;;;;;5055463;28;20704;-80
2023/09/21 09:38:42;;;;;;;2.05;1.67;;;25.40;52.30;;;;;;5053682;28;20257;-80
2023/09/21 09:41:11;;;;;;;1.90;1.80;;;25.40;52.20;;;;;;5054007;28;20202;-79
2023/09/21 09:43:38;;;;;;;1.90;1.70;;;25.60;51.90;;;;;;5053830;28;20195;-79
2023/09/21 09:46:08;;;;;;;1.98;1.80;;;25.70;51.70;;;;;;5053512;28;20231;-79
2023/09/21 09:48:34;;;;;;;1.70;1.60;;;25.80;51.40;;;;;;5053935;28;20197;-80
2023/09/21 09:51:09;;;;;;;1.90;1.80;;;25.80;51.20;;;;;;5053865;28;20599;-80
2023/09/21 09:53:37;;;;;;;1.88;1.60;;;25.90;51.20;;;;;;5054515;28;20190;-79
2023/09/21 09:56:08;;;;;;;2.38;1.73;;;25.90;51.20;;;;;;5053350;28;20739;-80
2023/09/21 09:58:35;;;;;;;1.85;1.75;;;25.90;51.20;;;;;;5053707;28;20187;-79
2023/09/21 10:01:03;;;;;;;2.42;1.70;;;25.90;51.30;;;;;;5053501;28;20203;-79
2023/09/21 10:03:32;;;;;;;1.90;1.80;;;25.90;51.30;;;;;;5053443;28;20195;-79
2023/09/21 10:06:00;;;;;;;1.65;1.55;;;25.90;51.30;;;;;;5053072;28;20215;-80
2023/09/21 10:08:29;;;;;;;1.50;1.40;;;25.90;51.30;;;;;;5054077;28;20545;-80
2023/09/21 10:10:57;;;;;;;1.50;1.40;;;25.80;51.30;;;;;;5053175;28;20187;-79
2023/09/21 10:13:27;;;;;;;2.08;1.40;;;25.80;51.40;;;;;;5053230;28;20285;-79
2023/09/21 10:16:02;;;;;;;1.92;1.73;;;25.70;51.50;;;;;;5053038;28;20665;-79
2023/09/21 10:18:33;;;;;;;1.85;1.65;;;25.70;51.70;;;;;;5053299;28;20198;-78
2023/09/21 10:21:04;;;;;;;1.73;1.63;;;25.70;51.70;;;;;;5054319;28;20183;-78
2023/09/21 10:23:34;;;;;;;1.60;1.50;;;25.60;51.80;;;;;;5057025;28;20207;-78
2023/09/21 10:26:01;;;;;;;1.67;1.52;;;25.60;51.80;;;;;;5062269;28;20257;-79
2023/09/21 10:28:39;;;;;;;1.70;1.60;;;25.60;51.90;;;;;;5054586;28;20194;-80
2023/09/21 10:31:25;;;;;;;1.88;1.58;;;25.50;52.00;;;;;;5036260;28;20194;-80
2023/09/21 10:34:09;;;;;;;1.70;1.60;;;25.50;52.10;;;;;;5052964;28;20198;-80
2023/09/21 10:36:38;;;;;;;1.60;1.50;;;25.50;52.20;;;;;;5052676;28;20217;-80
2023/09/21 10:39:24;;;;;;;1.58;1.48;;;25.40;52.20;;;;;;5053045;28;20237;-80
2023/09/21 10:41:52;;;;;;;1.40;1.30;;;25.40;52.20;;;;;;5053003;28;20194;-80
2023/09/21 10:44:52;;;;;;;1.83;1.73;;;25.40;52.20;;;;;;5054298;28;20213;-80
2023/09/21 10:47:22;;;;;;;1.80;1.70;;;25.50;52.10;;;;;;5045144;28;20218;-80
2023/09/21 10:49:49;;;;;;;1.60;1.50;;;25.60;52.00;;;;;;5052297;28;20653;-80
2023/09/21 10:52:17;;;;;;;2.13;1.58;;;25.60;51.90;;;;;;5052337;28;20199;-80
2023/09/21 10:54:45;;;;;;;1.52;1.42;;;25.70;51.80;;;;;;5052186;28;20259;-80
2023/09/21 10:57:13;;;;;;;1.63;1.52;;;25.70;51.70;;;;;;5052139;28;20207;-80
2023/09/21 10:59:42;;;;;;;1.55;1.45;;;25.80;51.60;;;;;;5052867;28;20226;-80
2023/09/21 11:02:10;;;;;;;2.13;1.40;;;25.80;51.50;;;;;;5052328;28;20217;-80
2023/09/21 11:04:37;;;;;;;1.60;1.50;;;25.90;51.50;;;;;;5052201;28;20195;-80
2023/09/21 11:07:05;;;;;;;1.73;1.63;;;25.80;51.40;;;;;;5052855;28;20215;-80
2023/09/21 11:09:35;;;;;;;1.55;1.45;;;25.80;51.40;;;;;;5053164;28;20201;-80
2023/09/21 11:12:04;;;;;;;1.60;1.50;;;25.80;51.50;;;;;;5054136;28;20191;-80
2023/09/21 11:14:31;;;;;;;1.70;1.60;;;25.80;51.70;;;;;;5054109;28;20191;-80
2023/09/21 11:16:58;;;;;;;1.60;1.50;;;25.80;51.80;;;;;;5054299;28;20566;-80
2023/09/21 11:19:25;;;;;;;1.83;1.73;;;25.70;51.90;;;;;;5052525;28;20199;-80
2023/09/21 11:21:52;;;;;;;1.60;1.50;;;25.60;52.00;;;;;;5052771;28;20248;-80
2023/09/21 11:24:19;;;;;;;1.60;1.50;;;25.70;52.10;;;;;;5052680;28;20203;-80
2023/09/21 11:26:49;;;;;;;1.63;1.52;;;25.60;52.10;;;;;;5053380;28;20210;-80
2023/09/21 11:29:17;;;;;;;1.77;1.60;;;25.60;52.20;;;;;;5052358;28;20234;-80
2023/09/21 11:31:45;;;;;;;1.60;1.50;;;25.60;52.20;;;;;;5051911;28;20252;-81
2023/09/21 11:34:12;;;;;;;1.60;1.50;;;25.60;52.20;;;;;;5052178;28;20257;-81
2023/09/21 11:36:40;;;;;;;1.65;1.50;;;25.60;52.20;;;;;;5052555;28;20700;-81
2023/09/21 11:39:08;;;;;;;1.55;1.40;;;25.60;52.30;;;;;;5051964;28;20194;-81
2023/09/21 11:41:36;;;;;;;1.90;1.58;;;25.60;52.30;;;;;;5056004;28;20215;-81
2023/09/21 11:44:05;;;;;;;1.73;1.63;;;25.60;52.30;;;;;;5064066;28;20206;-81
2023/09/21 11:46:34;;;;;;;1.75;1.65;;;25.60;52.30;;;;;;5064066;28;20685;-81
2023/09/21 11:49:03;;;;;;;1.60;1.50;;;25.60;52.30;;;;;;5060789;28;20272;-81
2023/09/21 11:51:30;;;;;;;1.67;1.58;;;25.60;52.30;;;;;;5057491;28;20610;-81
2023/09/21 11:54:00;;;;;;;1.50;1.40;;;25.70;52.30;;;;;;5058502;28;20208;-81
2023/09/21 11:56:27;;;;;;;1.65;1.50;;;25.60;52.20;;;;;;5057306;28;20215;-81
2023/09/21 11:58:58;;;;;;;1.70;1.60;;;25.70;52.30;;;;;;5059788;28;20224;-81
2023/09/21 12:01:27;;;;;;;1.70;1.60;;;25.70;52.30;;;;;;5060356;28;20236;-81
2023/09/21 12:03:57;;;;;;;1.40;1.30;;;25.70;52.30;;;;;;5060292;28;20657;-81
2023/09/21 12:06:27;;;;;;;1.50;1.40;;;25.70;52.30;;;;;;5060930;28;20708;-80
2023/09/21 12:08:54;;;;;;;1.48;1.38;;;25.70;52.40;;;;;;5060355;28;20298;-80
2023/09/21 12:11:21;;;;;;;1.60;1.50;;;25.60;52.30;;;;;;5058279;28;20252;-80
2023/09/21 12:13:48;;;;;;;1.35;1.25;;;25.60;52.40;;;;;;5057869;28;20557;-80
2023/09/21 12:16:15;;;;;;;1.38;1.30;;;25.60;52.40;;;;;;5057407;28;20226;-80
2023/09/21 12:18:43;;;;;;;1.08;1.08;;;25.70;52.40;;;;;;5057287;28;20558;-80
2023/09/21 12:21:18;;;;;;;1.92;1.60;;;25.70;52.40;;;;;;5056788;28;20276;-80
2023/09/21 12:23:46;;;;;;;1.75;1.65;;;25.60;52.40;;;;;;5115244;22;20280;-81
2023/09/21 12:26:13;;;;;;;1.55;1.30;;;25.70;53.00;;;;;;5055616;28;20203;-81
2023/09/21 12:28:42;;;;;;;1.40;1.30;;;25.70;52.40;;;;;;5054666;28;20352;-81
2023/09/21 12:31:09;;;;;;;1.48;1.38;;;25.70;52.40;;;;;;5038537;28;20201;-81
2023/09/21 12:33:36;;;;;;;1.42;1.33;;;25.70;52.30;;;;;;5054740;28;20194;-81
2023/09/21 12:36:04;;;;;;;1.40;1.30;;;25.80;52.30;;;;;;5038123;28;20272;-81
2023/09/21 12:38:32;;;;;;;1.70;1.60;;;25.80;52.30;;;;;;5054784;28;20650;-81
2023/09/21 12:40:59;;;;;;;1.70;1.50;;;25.80;52.20;;;;;;5054588;28;20191;-81
2023/09/21 12:43:28;;;;;;;1.60;1.50;;;25.80;52.20;;;;;;5054550;28;20202;-81
2023/09/21 12:45:55;;;;;;;1.73;1.50;;;25.80;52.20;;;;;;5054564;28;20226;-81
2023/09/21 12:48:22;;;;;;;1.60;1.50;;;25.80;52.20;;;;;;5054297;28;20226;-81
2023/09/21 12:50:49;;;;;;;1.50;1.40;;;25.80;52.20;;;;;;5054240;28;20230;-81
2023/09/21 12:53:16;;;;;;;1.77;1.40;;;25.80;52.20;;;;;;5054158;28;20199;-81
2023/09/21 12:55:45;;;;;;;1.60;1.50;;;25.80;52.30;;;;;;5054011;28;20214;-81